Time;durP1;ratioP1;P1;durP2;ratioP2;P2;SDS_P1;SDS_P2;PMS_P1;PMS_P2;Temp;Humidity;BMP_temperature;BMP_pressure;BME280_temperature;BME280_humidity;BME280_pressure;Samples;Min_cycle;Max_cycle;Signal;HPM_P1;HPM_P2
2022/11/14 00:01:16;;;;;;;;;;;12.40;99.90;;;;;;5094917;28;19915;-75
2022/11/14 00:03:42;;;;;;;;;;;12.40;99.90;;;;;;5094289;28;19999;-76
2022/11/14 00:06:07;;;;;;;;;;;12.40;99.90;;;;;;5094648;28;19924;-76
2022/11/14 00:08:33;;;;;;;;;;;12.40;99.90;;;;;;5094244;28;19909;-76
2022/11/14 00:10:59;;;;;;;;;;;12.40;99.90;;;;;;5094526;28;19908;-75
2022/11/14 00:13:24;;;;;;;;;;;12.40;99.90;;;;;;5094698;28;20395;-76
2022/11/14 00:15:53;;;;;;;;;;;12.40;99.90;;;;;;5094330;28;20563;-76
2022/11/14 00:18:19;;;;;;;;;;;12.50;99.90;;;;;;5094368;28;20388;-76
2022/11/14 00:20:48;;;;;;;;;;;12.50;99.90;;;;;;5094001;28;19908;-76
2022/11/14 00:23:14;;;;;;;;;;;12.50;99.90;;;;;;5094648;28;19951;-75
2022/11/14 00:25:39;;;;;;;;;;;12.50;99.90;;;;;;5093758;28;19952;-76
2022/11/14 00:28:05;;;;;;;;;;;12.50;99.90;;;;;;5094509;28;20010;-75
2022/11/14 00:30:31;;;;;;;;;;;12.50;99.90;;;;;;5093917;28;20272;-76
2022/11/14 00:32:56;;;;;;;;;;;12.50;99.90;;;;;;5094167;28;19908;-75
2022/11/14 00:35:22;;;;;;;;;;;12.50;99.90;;;;;;5094704;28;19963;-76
2022/11/14 00:37:47;;;;;;;;;;;12.50;99.90;;;;;;5093396;28;19919;-76
2022/11/14 00:40:14;;;;;;;;;;;12.50;99.90;;;;;;5092893;28;19915;-77
2022/11/14 00:42:39;;;;;;;;;;;12.30;99.90;;;;;;5093522;28;19931;-79
2022/11/14 00:45:05;;;;;;;;;;;12.30;99.90;;;;;;5093634;28;20364;-81
2022/11/14 00:47:31;;;;;;;;;;;12.20;99.90;;;;;;5093563;28;19978;-79
2022/11/14 00:49:56;;;;;;;;;;;12.20;99.90;;;;;;5093215;28;19959;-79
2022/11/14 00:52:22;;;;;;;;;;;12.10;99.90;;;;;;5092695;28;19908;-80
2022/11/14 00:54:47;;;;;;;;;;;12.20;99.90;;;;;;5093318;28;19957;-81
2022/11/14 00:57:13;;;;;;;;;;;12.10;99.90;;;;;;5093549;28;19915;-81
2022/11/14 00:59:38;;;;;;;;;;;12.10;99.90;;;;;;5093161;28;19961;-81
2022/11/14 01:02:04;;;;;;;;;;;12.10;99.90;;;;;;5092536;28;20277;-82
2022/11/14 01:04:29;;;;;;;;;;;12.10;99.90;;;;;;5093582;28;19912;-83
2022/11/14 01:06:55;;;;;;;;;;;12.10;99.90;;;;;;5092541;28;19931;-82
2022/11/14 01:09:21;;;;;;;;;;;12.10;99.90;;;;;;5093672;28;20006;-83
2022/11/14 01:11:46;;;;;;;;;;;12.00;99.90;;;;;;5092536;28;19913;-83
2022/11/14 01:14:12;;;;;;;;;;;11.90;99.90;;;;;;5093425;28;19914;-81
2022/11/14 01:16:37;;;;;;;;;;;12.00;99.90;;;;;;5098202;28;19912;-79
2022/11/14 01:19:03;;;;;;;;;;;12.00;99.90;;;;;;5110549;28;19908;-78
2022/11/14 01:21:29;;;;;;;;;;;12.10;99.90;;;;;;5102113;28;19908;-76
2022/11/14 01:23:54;;;;;;;;;;;12.00;99.90;;;;;;5091719;28;19915;-76
2022/11/14 01:26:20;;;;;;;;;;;12.10;99.90;;;;;;5093392;28;20376;-76
2022/11/14 01:28:46;;;;;;;;;;;12.10;99.90;;;;;;5092770;28;19948;-77
2022/11/14 01:31:13;;;;;;;;;;;12.20;99.90;;;;;;5093234;28;19908;-76
2022/11/14 01:33:39;;;;;;;;;;;12.10;99.90;;;;;;5092478;28;20289;-76
2022/11/14 01:36:05;;;;;;;;;;;12.10;99.90;;;;;;5093231;28;19914;-76
2022/11/14 01:38:31;;;;;;;;;;;12.20;99.90;;;;;;5092710;28;19915;-76
2022/11/14 01:40:56;;;;;;;;;;;12.20;99.90;;;;;;5092408;28;19905;-75
2022/11/14 01:43:26;;;;;;;;;;;12.20;99.90;;;;;;5092667;28;20353;-76
2022/11/14 01:45:51;;;;;;;;;;;12.20;99.90;;;;;;5091030;28;20357;-75
2022/11/14 01:48:26;;;;;;;;;;;12.20;99.90;;;;;;5092945;28;19938;-76
2022/11/14 01:50:57;;;;;;;;;;;12.10;99.90;;;;;;5091928;28;19909;-75
2022/11/14 01:53:23;;;;;;;;;;;12.10;99.90;;;;;;5092784;28;19909;-76
2022/11/14 01:55:49;;;;;;;;;;;12.10;99.90;;;;;;5092233;28;19908;-76
2022/11/14 01:58:15;;;;;;;;;;;12.10;99.90;;;;;;5095007;28;19908;-75
2022/11/14 02:00:41;;;;;;;;;;;12.10;99.90;;;;;;5096372;28;20261;-76
2022/11/14 02:03:07;;;;;;;;;;;12.00;99.90;;;;;;5095825;28;19908;-75
2022/11/14 02:05:33;;;;;;;;;;;12.00;99.90;;;;;;5096853;28;20003;-75
2022/11/14 02:07:59;;;;;;;;;;;12.00;99.90;;;;;;5096409;28;19912;-75
2022/11/14 02:10:24;;;;;;;;;;;12.00;99.90;;;;;;5096866;28;20250;-74
2022/11/14 02:12:50;;;;;;;;;;;12.00;99.90;;;;;;5095994;28;19908;-75
2022/11/14 02:15:16;;;;;;;;;;;12.00;99.90;;;;;;5096919;28;19926;-74
2022/11/14 02:17:42;;;;;;;;;;;12.00;99.90;;;;;;5096344;28;20285;-75
2022/11/14 02:20:08;;;;;;;;;;;12.00;99.90;;;;;;5096797;28;19996;-75
2022/11/14 02:22:34;;;;;;;;;;;12.00;99.90;;;;;;5096803;28;19959;-75
2022/11/14 02:24:59;;;;;;;;;;;12.00;99.90;;;;;;5096304;28;20512;-75
2022/11/14 02:27:25;;;;;;;;;;;12.00;99.90;;;;;;5096099;28;19915;-75
2022/11/14 02:29:51;;;;;;;;;;;12.00;99.90;;;;;;5094885;28;19923;-76
2022/11/14 02:32:16;;;;;;;;;;;12.00;99.90;;;;;;5095698;28;19908;-77
2022/11/14 02:34:42;;;;;;;;;;;12.00;99.90;;;;;;5096119;28;20346;-78
2022/11/14 02:37:07;;;;;;;;;;;11.90;99.90;;;;;;5096654;28;19913;-79
2022/11/14 02:39:33;;;;;;;;;;;12.00;99.90;;;;;;5095100;28;19912;-82
2022/11/14 02:41:58;;;;;;;;;;;12.10;99.90;;;;;;5096277;28;20022;-82
2022/11/14 02:44:24;;;;;;;;;;;12.10;99.90;;;;;;5095856;28;19915;-78
2022/11/14 02:46:50;;;;;;;;;;;12.10;99.90;;;;;;5095433;28;20327;-76
2022/11/14 02:49:15;;;;;;;;;;;12.20;99.90;;;;;;5096371;28;20378;-75
2022/11/14 02:51:41;;;;;;;;;;;12.10;99.90;;;;;;5095860;28;19908;-78
2022/11/14 02:54:07;;;;;;;;;;;12.10;99.90;;;;;;5096033;28;20049;-77
2022/11/14 02:56:32;;;;;;;;;;;12.10;99.90;;;;;;5095011;28;19961;-80
2022/11/14 02:58:58;;;;;;;;;;;12.10;99.90;;;;;;5095764;28;19917;-80
2022/11/14 03:01:23;;;;;;;;;;;12.10;99.90;;;;;;5096174;28;20350;-82
2022/11/14 03:03:49;;;;;;;;;;;12.10;99.90;;;;;;5095416;28;19909;-80
2022/11/14 03:06:15;;;;;;;;;;;12.10;99.90;;;;;;5095498;28;19920;-79
2022/11/14 03:08:40;;;;;;;;;;;12.00;99.90;;;;;;5095499;28;19908;-77
2022/11/14 03:11:07;;;;;;;;;;;11.90;99.90;;;;;;5095475;28;20003;-77
2022/11/14 03:13:32;;;;;;;;;;;11.90;99.90;;;;;;5095386;28;19908;-76
2022/11/14 03:16:08;;;;;;;;;;;12.00;99.90;;;;;;5095298;28;19919;-76
2022/11/14 03:18:34;;;;;;;;;;;12.00;99.90;;;;;;5095824;28;20327;-77
2022/11/14 03:21:06;;;;;;;;;;;11.90;99.90;;;;;;5095258;28;19908;-77
2022/11/14 03:23:32;;;;;;;;;;;11.80;99.90;;;;;;5095545;28;19914;-76
2022/11/14 03:25:58;;;;;;;;;;;11.70;99.90;;;;;;5094935;28;20353;-77
2022/11/14 03:28:24;;;;;;;;;;;11.80;99.90;;;;;;5095606;28;20396;-76
2022/11/14 03:30:50;;;;;;;;;;;11.80;99.90;;;;;;5095145;28;19908;-77
2022/11/14 03:33:15;;;;;;;;;;;11.80;99.90;;;;;;5095127;28;19955;-75
2022/11/14 03:35:41;;;;;;;;;;;11.80;99.90;;;;;;5095830;28;19909;-75
2022/11/14 03:38:07;;;;;;;;;;;11.80;99.90;;;;;;5095296;28;19965;-76
2022/11/14 03:40:32;;;;;;;;;;;11.80;99.90;;;;;;5095477;28;19912;-76
2022/11/14 03:42:58;;;;;;;;;;;11.80;99.90;;;;;;5095062;28;19912;-76
2022/11/14 03:45:24;;;;;;;;;;;11.80;99.90;;;;;;5095463;28;20250;-76
2022/11/14 03:47:49;;;;;;;;;;;11.80;99.90;;;;;;5094346;28;19920;-76
2022/11/14 03:50:15;;;;;;;;;;;11.80;99.90;;;;;;5095425;28;19915;-76
2022/11/14 03:52:40;;;;;;;;;;;11.80;99.90;;;;;;5095310;28;20422;-76
2022/11/14 03:55:06;;;;;;;;;;;11.80;99.90;;;;;;5094785;28;19990;-76
2022/11/14 03:57:32;;;;;;;;;;;11.80;99.90;;;;;;5095334;28;19908;-76
2022/11/14 03:59:57;;;;;;;;;;;11.70;99.90;;;;;;5094694;28;19912;-76
2022/11/14 04:02:23;;;;;;;;;;;11.70;99.90;;;;;;5093853;28;19999;-76
2022/11/14 04:04:48;;;;;;;;;;;11.70;99.90;;;;;;5093621;28;20349;-78
2022/11/14 04:07:14;;;;;;;;;;;11.70;99.90;;;;;;5093352;28;20335;-75
2022/11/14 04:09:39;;;;;;;;;;;11.70;99.90;;;;;;5094637;28;19995;-75
2022/11/14 04:12:05;;;;;;;;;;;11.70;99.90;;;;;;5093965;28;19912;-76
2022/11/14 04:14:31;;;;;;;;;;;11.70;99.90;;;;;;5094586;28;19907;-76
2022/11/14 04:16:56;;;;;;;;;;;11.70;99.90;;;;;;5093865;28;20280;-77
2022/11/14 04:19:22;;;;;;;;;;;11.80;99.90;;;;;;5094735;28;19915;-76
2022/11/14 04:21:47;;;;;;;;;;;11.70;99.90;;;;;;5093846;28;19944;-77
2022/11/14 04:24:13;;;;;;;;;;;11.70;99.90;;;;;;5094186;28;19908;-76
2022/11/14 04:26:38;;;;;;;;;;;11.80;99.90;;;;;;5094377;28;20425;-76
2022/11/14 04:29:04;;;;;;;;;;;11.80;99.90;;;;;;5093615;28;19908;-76
2022/11/14 04:31:29;;;;;;;;;;;11.80;99.90;;;;;;5093976;28;20418;-76
2022/11/14 04:33:55;;;;;;;;;;;11.80;99.90;;;;;;5098354;28;20250;-76
2022/11/14 04:36:20;;;;;;;;;;;11.80;99.90;;;;;;5099420;28;19959;-77
2022/11/14 04:38:46;;;;;;;;;;;11.80;99.90;;;;;;5094828;28;19934;-77
2022/11/14 04:41:11;;;;;;;;;;;11.80;99.90;;;;;;5093457;28;20008;-75
2022/11/14 04:43:37;;;;;;;;;;;11.80;99.90;;;;;;5092737;28;20286;-76
2022/11/14 04:46:03;;;;;;;;;;;11.80;99.90;;;;;;5093562;28;20036;-76
2022/11/14 04:48:28;;;;;;;;;;;11.80;99.90;;;;;;5094190;28;19909;-76
2022/11/14 04:50:54;;;;;;;;;;;11.80;99.90;;;;;;5093478;28;20491;-76
2022/11/14 04:53:19;;;;;;;;;;;11.80;99.90;;;;;;5093992;28;20273;-76
2022/11/14 04:55:45;;;;;;;;;;;11.80;99.90;;;;;;5093937;28;19908;-76
2022/11/14 04:58:10;;;;;;;;;;;11.80;99.90;;;;;;5093311;28;19911;-77
2022/11/14 05:00:36;;;;;;;;;;;11.80;99.90;;;;;;5093993;28;20353;-77
2022/11/14 05:03:02;;;;;;;;;;;11.70;99.90;;;;;;5092976;28;20066;-78
2022/11/14 05:05:27;;;;;;;;;;;11.70;99.90;;;;;;5092600;28;19928;-77
2022/11/14 05:07:53;;;;;;;;;;;11.70;99.90;;;;;;5092746;28;19939;-78
2022/11/14 05:10:21;;;;;;;;;;;11.60;99.90;;;;;;5092747;28;20270;-77
2022/11/14 05:12:46;;;;;;;;;;;11.60;99.90;;;;;;5093723;28;20242;-77
2022/11/14 05:15:12;;;;;;;;;;;11.60;99.90;;;;;;5091405;28;19908;-76
2022/11/14 05:17:37;;;;;;;;;;;11.60;99.90;;;;;;5093377;28;19912;-76
2022/11/14 05:20:03;;;;;;;;;;;11.60;99.90;;;;;;5092748;28;19961;-76
2022/11/14 05:22:29;;;;;;;;;;;11.60;99.90;;;;;;5092199;28;20361;-75
2022/11/14 05:24:54;;;;;;;;;;;11.60;99.90;;;;;;5092667;28;19915;-76
2022/11/14 05:27:20;;;;;;;;;;;11.60;99.90;;;;;;5093479;28;19912;-75
2022/11/14 05:29:45;;;;;;;;;;;11.70;99.90;;;;;;5093385;28;20393;-76
2022/11/14 05:32:11;;;;;;;;;;;11.60;99.90;;;;;;5092681;28;19909;-75
2022/11/14 05:34:37;;;;;;;;;;;11.60;99.90;;;;;;5091913;28;20045;-75
2022/11/14 05:37:02;;;;;;;;;;;11.60;99.90;;;;;;5092643;28;19931;-76
2022/11/14 05:39:29;;;;;;;;;;;11.60;99.90;;;;;;5093283;28;20310;-76
2022/11/14 05:41:54;;;;;;;;;;;11.60;99.90;;;;;;5091540;28;19915;-77
2022/11/14 05:44:20;;;;;;;;;;;11.50;99.90;;;;;;5093190;28;19908;-76
2022/11/14 05:46:45;;;;;;;;;;;11.50;99.90;;;;;;5092659;28;20049;-76
2022/11/14 05:49:11;;;;;;;;;;;11.50;99.90;;;;;;5092329;28;19958;-76
2022/11/14 05:51:36;;;;;;;;;;;11.50;99.90;;;;;;5093224;28;19909;-75
2022/11/14 05:54:02;;;;;;;;;;;11.40;99.90;;;;;;5092317;28;19980;-75
2022/11/14 05:56:27;;;;;;;;;;;11.50;99.90;;;;;;5093243;28;19977;-76
2022/11/14 05:58:53;;;;;;;;;;;11.50;99.90;;;;;;5091661;28;19908;-76
2022/11/14 06:01:19;;;;;;;;;;;11.50;99.90;;;;;;5092385;28;19908;-75
2022/11/14 06:03:45;;;;;;;;;;;11.50;99.90;;;;;;5092951;28;20268;-76
2022/11/14 06:06:12;;;;;;;;;;;11.50;99.90;;;;;;5091968;28;19920;-76
2022/11/14 06:08:38;;;;;;;;;;;11.50;99.90;;;;;;5093287;28;20369;-75
2022/11/14 06:11:06;;;;;;;;;;;11.50;99.90;;;;;;5092332;28;19933;-76
2022/11/14 06:13:32;;;;;;;;;;;11.40;99.90;;;;;;5092871;28;19912;-76
2022/11/14 06:16:01;;;;;;;;;;;11.50;99.90;;;;;;5092154;28;20533;-75
2022/11/14 06:18:27;;;;;;;;;;;11.50;99.90;;;;;;5092429;28;20426;-76
2022/11/14 06:20:52;;;;;;;;;;;11.40;99.90;;;;;;5091584;28;20006;-76
2022/11/14 06:23:18;;;;;;;;;;;11.50;99.90;;;;;;5091845;28;19997;-76
2022/11/14 06:25:44;;;;;;;;;;;11.60;99.90;;;;;;5092879;28;19974;-76
2022/11/14 06:28:09;;;;;;;;;;;11.50;99.90;;;;;;5092116;28;20006;-76
2022/11/14 06:30:35;;;;;;;;;;;11.50;99.90;;;;;;5092526;28;19912;-76
2022/11/14 06:33:00;;;;;;;;;;;11.50;99.90;;;;;;5092087;28;19908;-77
2022/11/14 06:35:26;;;;;;;;;;;11.50;99.90;;;;;;5092868;28;19908;-76
2022/11/14 06:37:52;;;;;;;;;;;11.40;99.90;;;;;;5092703;28;19958;-76
2022/11/14 06:40:17;;;;;;;;;;;11.40;99.90;;;;;;5092368;28;20027;-76
2022/11/14 06:42:43;;;;;;;;;;;11.40;99.90;;;;;;5093014;28;20335;-75
2022/11/14 06:45:09;;;;;;;;;;;11.40;99.90;;;;;;5095212;28;19915;-74
2022/11/14 06:47:34;;;;;;;;;;;11.40;99.90;;;;;;5096101;28;20018;-75
2022/11/14 06:50:00;;;;;;;;;;;11.40;99.90;;;;;;5095705;28;19912;-76
2022/11/14 06:52:26;;;;;;;;;;;11.40;99.90;;;;;;5096318;28;19939;-75
2022/11/14 06:54:51;;;;;;;;;;;11.40;99.90;;;;;;5096286;28;19915;-75
2022/11/14 06:57:17;;;;;;;;;;;11.40;99.90;;;;;;5095680;28;19965;-75
2022/11/14 06:59:43;;;;;;;;;;;11.40;99.90;;;;;;5096047;28;20003;-74
2022/11/14 07:02:12;;;;;;;;;;;11.30;99.90;;;;;;5095639;28;19912;-74
2022/11/14 07:04:38;;;;;;;;;;;11.30;99.90;;;;;;5096209;28;19943;-75
2022/11/14 07:07:04;;;;;;;;;;;11.30;99.90;;;;;;5095149;28;19970;-75
2022/11/14 07:09:29;;;;;;;;;;;11.20;99.90;;;;;;5096115;28;19914;-76
2022/11/14 07:11:55;;;;;;;;;;;11.30;99.90;;;;;;5096110;28;19908;-76
2022/11/14 07:14:20;;;;;;;;;;;11.20;99.90;;;;;;5095091;28;19978;-77
2022/11/14 07:16:46;;;;;;;;;;;11.20;99.90;;;;;;5095311;28;20006;-75
2022/11/14 07:19:12;;;;;;;;;;;11.20;99.90;;;;;;5095155;28;19923;-77
2022/11/14 07:21:38;;;;;;;;;;;11.20;99.90;;;;;;5095453;28;19912;-76
2022/11/14 07:24:03;;;;;;;;;;;11.20;99.90;;;;;;5095121;28;20002;-76
2022/11/14 07:26:29;;;;;;;;;;;11.20;99.90;;;;;;5095607;28;20441;-76
2022/11/14 07:28:55;;;;;;;;;;;11.20;99.90;;;;;;5095664;28;19946;-75
2022/11/14 07:31:20;;;;;;;;;;;11.20;99.90;;;;;;5095071;28;19908;-75
2022/11/14 07:33:46;;;;;;;;;;;11.20;99.90;;;;;;5095145;28;19918;-76
2022/11/14 07:36:12;;;;;;;;;;;11.20;99.90;;;;;;5095088;28;19915;-78
2022/11/14 07:38:38;;;;;;;;;;;11.20;99.90;;;;;;5095479;28;20414;-76
2022/11/14 07:41:05;;;;;;;;;;;11.20;99.90;;;;;;5095100;28;19908;-75
2022/11/14 07:43:30;;;;;;;;;;;11.10;99.90;;;;;;5101623;28;19929;-75
2022/11/14 07:45:59;;;;;;;;;;;11.20;99.90;;;;;;5107635;28;19967;-76
2022/11/14 07:48:25;;;;;;;;;;;11.20;99.90;;;;;;5100572;28;19994;-76
2022/11/14 07:50:51;;;;;;;;;;;11.10;99.90;;;;;;5096297;28;19908;-76
2022/11/14 07:53:18;;;;;;;;;;;11.20;99.90;;;;;;5095927;28;20003;-75
2022/11/14 07:55:43;;;;;;;;;;;11.20;99.90;;;;;;5094617;28;19908;-74
2022/11/14 07:58:09;;;;;;;;;;;11.20;99.90;;;;;;5094784;28;20381;-75
2022/11/14 08:00:34;;;;;;;;;;;11.20;99.90;;;;;;5095009;28;19908;-76
2022/11/14 08:03:00;;;;;;;;;;;11.20;99.90;;;;;;5095062;28;19939;-76
2022/11/14 08:05:26;;;;;;;;;;;11.20;99.90;;;;;;5094003;28;20671;-76
2022/11/14 08:07:51;;;;;;;;;;;11.20;99.90;;;;;;5093667;28;20007;-75
2022/11/14 08:10:17;;;;;;;;;;;11.10;99.90;;;;;;5094047;28;20254;-75
2022/11/14 08:12:44;;;;;;;;;;;11.20;99.90;;;;;;5093266;28;19908;-75
2022/11/14 08:15:10;;;;;;;;;;;11.10;99.90;;;;;;5094057;28;20380;-76
2022/11/14 08:17:36;;;;;;;;;;;11.10;99.90;;;;;;5093305;28;19908;-75
2022/11/14 08:20:02;;;;;;;;;;;11.10;99.90;;;;;;5093918;28;19938;-75
2022/11/14 08:22:28;;;;;;;;;;;11.10;99.90;;;;;;5094481;28;19912;-75
2022/11/14 08:24:53;;;;;;;;;;;11.20;99.90;;;;;;5094439;28;20303;-75
2022/11/14 08:27:19;;;;;;;;;;;11.20;99.90;;;;;;5092600;28;20007;-75
2022/11/14 08:29:44;;;;;;;;;;;11.20;99.90;;;;;;5094199;28;19934;-76
2022/11/14 08:32:10;;;;;;;;;;;11.20;99.90;;;;;;5092533;28;19909;-75
2022/11/14 08:34:36;;;;;;;;;;;11.20;99.90;;;;;;5092763;28;20400;-76
2022/11/14 08:37:01;;;;;;;;;;;11.20;99.90;;;;;;5093003;28;20056;-75
2022/11/14 08:39:27;;;;;;;;;;;11.10;99.90;;;;;;5093427;28;19918;-76
2022/11/14 08:41:53;;;;;;;;;;;11.20;99.90;;;;;;5093022;28;19916;-76
2022/11/14 08:44:18;;;;;;;;;;;11.10;99.90;;;;;;5093612;28;19908;-75
2022/11/14 08:46:44;;;;;;;;;;;11.20;99.90;;;;;;5094429;28;20419;-75
2022/11/14 08:49:10;;;;;;;;;;;11.20;99.90;;;;;;5092265;28;19934;-75
2022/11/14 08:51:35;;;;;;;;;;;11.30;99.90;;;;;;5094221;28;20353;-76
2022/11/14 08:54:01;;;;;;;;;;;11.30;99.90;;;;;;5092730;28;19908;-75
2022/11/14 08:56:27;;;;;;;;;;;11.30;99.90;;;;;;5093110;28;20396;-76
2022/11/14 08:58:52;;;;;;;;;;;11.30;99.90;;;;;;5093810;28;20002;-75
2022/11/14 09:01:18;;;;;;;;;;;11.30;99.90;;;;;;5092083;28;19926;-76
2022/11/14 09:03:43;;;;;;;;;;;11.30;99.90;;;;;;5092499;28;19908;-77
2022/11/14 09:06:09;;;;;;;;;;;11.40;99.90;;;;;;5091240;28;19920;-75
2022/11/14 09:08:35;;;;;;;;;;;11.40;99.90;;;;;;5093702;28;20366;-74
2022/11/14 09:11:01;;;;;;;;;;;11.50;99.90;;;;;;5092400;28;19908;-77
2022/11/14 09:13:27;;;;;;;;;;;11.50;99.90;;;;;;5091843;28;19919;-75
2022/11/14 09:15:52;;;;;;;;;;;11.50;99.90;;;;;;5092487;28;19912;-76
2022/11/14 09:18:18;;;;;;;;;;;11.50;99.90;;;;;;5093277;28;20010;-76
2022/11/14 09:20:44;;;;;;;;;;;11.60;99.90;;;;;;5092263;28;20318;-76
2022/11/14 09:23:09;;;;;;;;;;;11.70;99.90;;;;;;5091848;28;20271;-77
2022/11/14 09:25:35;;;;;;;;;;;11.70;99.90;;;;;;5092407;28;19922;-76
2022/11/14 09:28:07;;;;;;;;;;;11.70;99.90;;;;;;5091846;28;19919;-76
2022/11/14 09:30:34;;;;;;;;;;;11.70;99.90;;;;;;5091546;28;20003;-75
2022/11/14 09:33:00;;;;;;;;;;;11.70;99.90;;;;;;5092213;28;19953;-77
2022/11/14 09:35:26;;;;;;;;;;;11.80;99.90;;;;;;5097452;28;19908;-74
2022/11/14 09:38:18;;;;;;;;;;;11.80;99.90;;;;;;5104440;28;19954;-76
2022/11/14 09:40:46;;;;;;;;;;;11.80;99.90;;;;;;5078988;28;20361;-76
2022/11/14 09:43:30;;;;;;;;;;;11.90;99.90;;;;;;5070396;28;20403;-76
2022/11/14 09:45:56;;;;;;;;;;;11.90;99.90;;;;;;5072515;28;19912;-75
2022/11/14 09:48:24;;;;;;;;;;;12.00;99.90;;;;;;5071780;28;19961;-76
2022/11/14 09:50:58;;;;;;;;;;;12.00;99.90;;;;;;5072448;28;19912;-76
2022/11/14 09:53:38;;;;;;;;;;;12.00;99.90;;;;;;5071792;28;19908;-76
2022/11/14 09:56:05;;;;;;;;;;;12.00;99.90;;;;;;5072365;28;20014;-75
2022/11/14 09:58:30;;;;;;;;;;;12.10;99.90;;;;;;5072027;28;19909;-75
2022/11/14 10:01:03;;;;;;;;;;;12.00;99.90;;;;;;5071048;28;19916;-75
2022/11/14 10:03:31;;;;;;;;;;;12.00;99.90;;;;;;5071747;28;19919;-74
2022/11/14 10:05:57;;;;;;;;;;;12.00;99.90;;;;;;5071639;28;19967;-78
2022/11/14 10:08:28;;;;;;;;;;;12.00;99.90;;;;;;5071574;28;19956;-75
2022/11/14 10:10:57;;;;;;;;;;;12.00;99.90;;;;;;5072457;28;19916;-75
2022/11/14 10:13:34;;;;;;;;;;;12.10;99.90;;;;;;5069878;28;19915;-76
2022/11/14 10:16:09;;;;;;;;;;;12.10;99.90;;;;;;5087809;28;19909;-75
2022/11/14 10:18:45;;;;;;;;;;;12.10;99.90;;;;;;5072282;28;19970;-75
2022/11/14 10:21:29;;;;;;;;;;;12.10;99.90;;;;;;5091273;28;19990;-76
2022/11/14 10:24:02;;;;;;;;;;;12.10;99.90;;;;;;5075910;28;19924;-77
2022/11/14 10:26:31;;;;;;;;;;;12.20;99.90;;;;;;5074325;28;20009;-74
2022/11/14 10:29:20;;;;;;;;;;;12.20;99.90;;;;;;5091648;28;19913;-77
2022/11/14 10:31:57;;;;;;;;;;;12.30;99.90;;;;;;5055515;28;19913;-75
2022/11/14 10:34:25;;;;;;;;;;;12.30;99.90;;;;;;5090716;28;19908;-75
2022/11/14 10:37:11;;;;;;;;;;;12.30;99.90;;;;;;5074680;28;19909;-75
2022/11/14 10:39:40;;;;;;;;;;;12.30;99.90;;;;;;5053904;28;19962;-76
2022/11/14 10:42:14;;;;;;;;;;;12.30;99.90;;;;;;5075847;28;19908;-74
2022/11/14 10:44:58;;;;;;;;;;;12.40;99.90;;;;;;5091192;28;20388;-75
2022/11/14 10:47:26;;;;;;;;;;;12.40;99.90;;;;;;5075068;28;19964;-76
2022/11/14 10:49:54;;;;;;;;;;;12.50;99.90;;;;;;5091119;28;20402;-75
2022/11/14 10:52:21;;;;;;;;;;;12.50;99.90;;;;;;5090502;28;20350;-76
2022/11/14 10:54:50;;;;;;;;;;;12.50;99.90;;;;;;5075605;28;19916;-76
2022/11/14 10:57:17;;;;;;;;;;;12.60;99.90;;;;;;5073528;28;19909;-75
2022/11/14 10:59:43;;;;;;;;;;;12.60;99.90;;;;;;5074946;28;19956;-75
2022/11/14 11:02:09;;;;;;;;;;;12.60;99.90;;;;;;5075509;28;20341;-74
2022/11/14 11:04:35;;;;;;;;;;;12.60;99.90;;;;;;5090573;28;19938;-75
2022/11/14 11:07:07;;;;;;;;;;;12.70;99.90;;;;;;5075362;28;19973;-75
2022/11/14 11:12:20;;;;;;;;;;;12.70;99.90;;;;;;5074567;28;19927;-74
2022/11/14 11:14:47;;;;;;;;;;;12.70;99.90;;;;;;5075185;28;19912;-75
2022/11/14 11:17:14;;;;;;;;;;;12.70;99.90;;;;;;5074343;28;19967;-76
2022/11/14 11:19:40;;;;;;;;;;;12.80;99.90;;;;;;5075130;28;19931;-75
2022/11/14 11:22:35;;;;;;;;;;;12.90;99.90;;;;;;5074679;28;19908;-75
2022/11/14 11:25:02;;;;;;;;;;;12.90;99.90;;;;;;5066149;28;19909;-76
2022/11/14 11:27:29;;;;;;;;;;;12.90;99.90;;;;;;5090234;28;19927;-76
2022/11/14 11:30:14;;;;;;;;;;;12.90;99.90;;;;;;5075438;28;19958;-76
2022/11/14 11:32:40;;;;;;;;;;;12.90;99.90;;;;;;5074927;28;19915;-76
2022/11/14 11:35:10;;;;;;;;;;;12.90;99.90;;;;;;5090735;28;20003;-76
2022/11/14 11:37:38;;;;;;;;;;;12.80;99.90;;;;;;5074891;28;19916;-75
2022/11/14 11:40:05;;;;;;;;;;;12.80;99.90;;;;;;5075155;28;19908;-76
2022/11/14 11:42:50;;;;;;;;;;;12.80;99.90;;;;;;5106388;28;19916;-76
2022/11/14 11:45:17;;;;;;;;;;;12.80;99.90;;;;;;5074162;28;19908;-76
2022/11/14 11:47:49;;;;;;;;;;;12.80;99.90;;;;;;5074496;28;19916;-76
2022/11/14 11:50:16;;;;;;;;;;;12.70;99.90;;;;;;5089497;28;19952;-75
2022/11/14 11:53:02;;;;;;;;;;;12.50;99.90;;;;;;5074386;28;20397;-78
2022/11/14 11:55:32;;;;;;;;;;;12.40;99.90;;;;;;5066497;28;19909;-76
2022/11/14 11:57:57;;;;;;;;;;;12.30;99.90;;;;;;5089930;28;19908;-76
2022/11/14 12:00:23;;;;;;;;;;;12.30;99.90;;;;;;5072336;28;20316;-75
2022/11/14 12:02:51;;;;;;;;;;;12.20;99.90;;;;;;5089877;28;19999;-75
2022/11/14 12:05:35;;;;;;;;;;;12.10;99.90;;;;;;5073426;28;19915;-76
2022/11/14 12:08:03;;;;;;;;;;;12.10;99.90;;;;;;5091902;28;20011;-75
2022/11/14 12:10:30;;;;;;;;;;;12.10;99.90;;;;;;5092825;28;20420;-78
2022/11/14 12:13:08;;;;;;;;;;;12.20;99.90;;;;;;5101352;28;19914;-76
2022/11/14 12:15:36;;;;;;;;;;;12.10;99.90;;;;;;5109115;28;19908;-75
2022/11/14 12:18:14;;;;;;;;;;;12.20;99.90;;;;;;5112134;28;19919;-76
2022/11/14 12:20:46;;;;;;;;;;;12.20;99.90;;;;;;5110389;28;19908;-75
2022/11/14 12:23:21;;;;;;;;;;;12.30;99.90;;;;;;5093823;28;20372;-77
2022/11/14 12:26:02;;;;;;;;;;;12.30;99.90;;;;;;5092676;28;19908;-75
2022/11/14 12:28:39;;;;;;;;;;;12.30;99.90;;;;;;5092834;28;20281;-75
2022/11/14 12:31:09;;;;;;;;;;;12.30;99.90;;;;;;5092622;28;20011;-75
2022/11/14 12:33:37;;;;;;;;;;;12.40;99.90;;;;;;5093103;28;20007;-76
2022/11/14 12:36:10;;;;;;;;;;;12.40;99.90;;;;;;5092407;28;19908;-76
2022/11/14 12:38:47;;;;;;;;;;;12.40;99.90;;;;;;5093238;28;19914;-75
2022/11/14 12:41:19;;;;;;;;;;;12.40;99.90;;;;;;5091475;28;20006;-79
2022/11/14 12:43:46;;;;;;;;;;;12.40;99.90;;;;;;5093797;28;19908;-75
2022/11/14 12:46:12;;;;;;;;;;;12.40;99.90;;;;;;5093386;28;20332;-76
2022/11/14 12:48:39;;;;;;;;;;;12.40;99.90;;;;;;5092032;28;19908;-75
2022/11/14 12:51:25;;;;;;;;;;;12.40;99.90;;;;;;5093074;28;20258;-76
2022/11/14 12:53:51;;;;;;;;;;;12.40;99.90;;;;;;5093579;28;19912;-76
2022/11/14 12:56:21;;;;;;;;;;;12.40;99.90;;;;;;5092929;28;20365;-75
2022/11/14 12:58:53;;;;;;;;;;;12.40;99.90;;;;;;5092363;28;19915;-76
2022/11/14 13:01:23;;;;;;;;;;;12.50;99.90;;;;;;5092819;28;20254;-76
2022/11/14 13:03:51;;;;;;;;;;;12.50;99.90;;;;;;5092801;28;20398;-75
2022/11/14 13:06:21;;;;;;;;;;;12.50;99.90;;;;;;5093244;28;19921;-75
2022/11/14 13:08:54;;;;;;;;;;;12.60;99.90;;;;;;5092475;28;19911;-75
2022/11/14 13:23:28;;;;;;;;;;;12.70;99.90;;;;;;5093250;28;19915;-75
2022/11/14 13:26:09;;;;;;;;;;;12.70;99.90;;;;;;5092749;28;19952;-75
2022/11/14 13:28:35;;;;;;;;;;;12.70;99.90;;;;;;5090851;28;20104;-74
2022/11/14 13:31:17;;;;;;;;;;;12.80;99.90;;;;;;5093166;28;20361;-74
2022/11/14 13:33:43;;;;;;;;;;;12.70;99.90;;;;;;5093498;28;19930;-75
2022/11/14 13:36:26;;;;;;;;;;;12.70;99.90;;;;;;5093461;28;19914;-74
2022/11/14 13:38:51;;;;;;;;;;;12.60;99.90;;;;;;5091927;28;19953;-74
2022/11/14 13:41:23;;;;;;;;;;;12.50;99.90;;;;;;5092399;28;19912;-75
2022/11/14 13:44:12;;;;;;;;;;;12.50;99.90;;;;;;5091958;28;19912;-75
2022/11/14 13:46:44;;;;;;;;;;;12.50;99.90;;;;;;5091141;28;19920;-74
2022/11/14 13:49:16;;;;;;;;;;;12.50;99.90;;;;;;5093277;28;19913;-75
2022/11/14 13:51:42;;;;;;;;;;;12.40;99.90;;;;;;5093195;28;20353;-75
2022/11/14 13:54:15;;;;;;;;;;;12.30;99.90;;;;;;5092866;28;19923;-74
2022/11/14 13:57:05;;;;;;;;;;;12.30;99.90;;;;;;5091110;28;19940;-75
2022/11/14 13:59:47;;;;;;;;;;;12.30;99.90;;;;;;5090974;28;19908;-74
2022/11/14 14:02:24;;;;;;;;;;;12.20;99.90;;;;;;5093379;28;19908;-74
2022/11/14 14:05:05;;;;;;;;;;;12.20;99.90;;;;;;5092819;28;19916;-74
2022/11/14 14:07:31;;;;;;;;;;;12.10;99.90;;;;;;5090974;28;19966;-75
2022/11/14 14:10:02;;;;;;;;;;;12.00;99.90;;;;;;5091655;28;19912;-75
2022/11/14 14:12:34;;;;;;;;;;;12.10;99.90;;;;;;5091205;28;20050;-75
2022/11/14 14:15:15;;;;;;;;;;;12.00;99.90;;;;;;5093088;28;19908;-74
2022/11/14 14:17:46;;;;;;;;;;;12.00;99.90;;;;;;5092759;28;19908;-74
2022/11/14 14:20:12;;;;;;;;;;;11.90;99.90;;;;;;5091407;28;19939;-75
2022/11/14 14:22:54;;;;;;;;;;;11.90;99.90;;;;;;5091124;28;20007;-76
2022/11/14 14:25:48;;;;;;;;;;;11.90;99.90;;;;;;5091908;28;19961;-75
2022/11/14 14:28:14;;;;;;;;;;;11.90;99.90;;;;;;5077690;28;19919;-75
2022/11/14 14:30:40;;;;;;;;;;;11.90;99.90;;;;;;5090620;28;19912;-75
2022/11/14 14:33:15;;;;;;;;;;;11.90;99.90;;;;;;5090856;28;19912;-74
2022/11/14 14:35:50;;;;;;;;;;;11.80;99.90;;;;;;5090462;28;20049;-76